Time;durP1;ratioP1;P1;durP2;ratioP2;P2;SDS_P1;SDS_P2;PMS_P1;PMS_P2;Temp;Humidity;BMP_temperature;BMP_pressure;BME280_temperature;BME280_humidity;BME280_pressure;Samples;Min_cycle;Max_cycle;Signal;HPM_P1;HPM_P2
2022/01/19 00:00:14;;;;;;;41.38;22.17;;;;;;;0.99;96.65;103230.59;5088775;28;20061;-78
2022/01/19 00:02:40;;;;;;;47.63;24.15;;;;;;;1.00;96.47;103224.56;5089387;28;20023;-79
2022/01/19 00:05:07;;;;;;;67.35;29.48;;;;;;;0.97;96.41;103212.47;5087656;28;20035;-79
2022/01/19 00:07:32;;;;;;;58.45;26.02;;;;;;;0.90;96.98;103206.41;5087929;28;20068;-77
2022/01/19 00:10:03;;;;;;;53.58;24.13;;;;;;;0.90;96.96;103200.34;5085858;28;20430;-77
2022/01/19 00:12:30;;;;;;;46.08;23.42;;;;;;;0.87;96.98;103214.16;5086908;28;20153;-77
2022/01/19 00:14:56;;;;;;;43.67;22.63;;;;;;;0.81;96.20;103206.38;5079591;28;20032;-77
2022/01/19 00:17:21;;;;;;;51.47;22.92;;;;;;;0.81;96.54;103218.44;5086089;28;20032;-78
2022/01/19 00:19:46;;;;;;;54.92;23.40;;;;;;;0.75;96.93;103216.66;5087292;28;20020;-77
2022/01/19 00:22:14;;;;;;;45.88;23.15;;;;;;;0.70;97.30;103209.72;5079773;28;20032;-77
2022/01/19 00:24:41;;;;;;;47.85;22.75;;;;;;;0.69;97.12;103203.69;5086972;28;20028;-77
2022/01/19 00:27:07;;;;;;;45.60;23.33;;;;;;;0.66;97.09;103184.69;5103646;28;20035;-77
2022/01/19 00:29:32;;;;;;;42.15;22.92;;;;;;;0.68;97.22;103175.19;5085473;28;20078;-77
2022/01/19 00:31:58;;;;;;;44.53;23.77;;;;;;;0.68;97.44;103151.88;5090131;28;20027;-77
2022/01/19 00:34:23;;;;;;;47.95;22.45;;;;;;;0.66;96.96;103128.56;5106793;28;20040;-77
2022/01/19 00:36:48;;;;;;;38.03;22.13;;;;;;;0.66;97.33;103128.56;5091323;28;20103;-77
2022/01/19 00:39:14;;;;;;;44.47;22.50;;;;;;;0.60;96.71;103108.69;5087634;28;20412;-78
2022/01/19 00:41:39;;;;;;;46.88;23.05;;;;;;;0.62;96.87;103100.91;5078527;28;20134;-77
2022/01/19 00:44:04;;;;;;;44.08;21.90;;;;;;;0.56;96.47;103091.41;5090781;28;20024;-78
2022/01/19 00:46:30;;;;;;;46.92;22.23;;;;;;;0.52;96.94;103105.19;5086138;28;20032;-77
2022/01/19 00:48:55;;;;;;;49.80;22.80;;;;;;;0.50;96.71;103125.03;5088041;28;20422;-78
2022/01/19 00:51:21;;;;;;;46.30;23.25;;;;;;;0.47;97.00;103122.44;5090193;28;20027;-77
2022/01/19 00:53:46;;;;;;;42.45;22.55;;;;;;;0.51;97.29;103124.19;5085078;28;20024;-78
2022/01/19 00:56:14;;;;;;;48.15;23.50;;;;;;;0.52;97.79;103133.69;5090628;28;20032;-79
2022/01/19 00:58:40;;;;;;;41.78;22.52;;;;;;;0.49;97.71;103131.09;5091024;28;20028;-78
2022/01/19 01:01:05;;;;;;;54.85;24.70;;;;;;;0.51;97.55;103139.72;5090999;28;20031;-78
2022/01/19 01:03:31;;;;;;;60.95;25.27;;;;;;;0.50;97.99;103147.50;5087784;28;20189;-78
2022/01/19 01:05:56;;;;;;;62.50;26.00;;;;;;;0.49;98.11;103144.03;5089453;28;20028;-78
2022/01/19 01:08:22;;;;;;;75.97;33.40;;;;;;;0.52;98.24;103127.66;5082153;28;20569;-77
2022/01/19 01:10:48;;;;;;;78.72;33.80;;;;;;;0.53;98.53;103126.78;5091061;28;20089;-77
2022/01/19 01:16:16;;;;;;;63.58;29.20;;;;;;;0.48;98.58;103106.06;5071419;28;20064;-78
2022/01/19 01:18:41;;;;;;;52.15;26.60;;;;;;;0.48;98.58;103098.28;5090459;28;20020;-78
2022/01/19 01:21:07;;;;;;;47.55;25.60;;;;;;;0.47;98.72;103072.38;5089710;28;20387;-77
2022/01/19 01:23:34;;;;;;;42.67;25.15;;;;;;;0.46;98.87;103063.75;5106596;28;20050;-79
2022/01/19 01:26:01;;;;;;;41.17;23.45;;;;;;;0.46;98.86;103060.28;5091791;28;20076;-79
2022/01/19 01:28:26;;;;;;;39.75;23.52;;;;;;;0.49;99.52;103052.53;5090037;28;20034;-77
2022/01/19 01:30:53;;;;;;;36.67;23.48;;;;;;;0.53;100.00;103042.19;5091192;28;20107;-78
2022/01/19 01:33:18;;;;;;;38.40;23.52;;;;;;;0.57;100.00;103043.06;5089193;28;20027;-77
2022/01/19 01:35:44;;;;;;;40.08;23.65;;;;;;;0.57;100.00;103015.44;5089484;28;20047;-78
2022/01/19 01:38:09;;;;;;;39.88;24.75;;;;;;;0.63;100.00;103010.25;5088644;28;20476;-77
2022/01/19 01:40:36;;;;;;;39.75;24.33;;;;;;;0.65;100.00;102997.31;5089611;28;20024;-79
2022/01/19 01:43:04;;;;;;;39.28;24.70;;;;;;;0.69;100.00;102993.84;5088911;28;20668;-78
2022/01/19 01:45:32;;;;;;;45.88;27.02;;;;;;;0.72;100.00;102987.81;5088738;28;20418;-78
2022/01/19 01:48:06;;;;;;;45.45;26.85;;;;;;;0.74;100.00;102986.94;5090452;28;20476;-78
2022/01/19 01:53:26;;;;;;;53.42;28.83;;;;;;;0.80;100.00;102996.44;5090242;28;20069;-78
2022/01/19 01:56:16;;;;;;;50.92;27.88;;;;;;;0.82;100.00;103005.13;5089597;28;20381;-78
2022/01/19 01:58:44;;;;;;;55.28;27.77;;;;;;;0.73;100.00;103005.09;5082280;28;20012;-78
2022/01/19 02:01:14;;;;;;;46.10;26.83;;;;;;;0.71;100.00;103006.81;5090518;28;20031;-78
2022/01/19 02:03:41;;;;;;;48.72;26.08;;;;;;;0.73;100.00;102997.31;5079993;28;21006;-78
2022/01/19 02:08:55;;;;;;;45.85;24.95;;;;;;;0.63;100.00;102979.16;5090493;28;20399;-78
2022/01/19 02:22:59;;;;;;;41.90;24.02;;;;;;;0.46;99.96;102967.06;5090598;28;20046;-78
2022/01/19 02:25:29;;;;;;;42.25;24.98;;;;;;;0.41;99.51;102968.78;5089265;28;20022;-78
2022/01/19 02:41:18;;;;;;;47.25;25.25;;;;;;;0.20;98.69;102894.50;5089393;28;20054;-78
2022/01/19 02:43:49;;;;;;;47.53;24.95;;;;;;;0.18;98.98;102884.16;5095293;28;20507;-78
2022/01/19 02:49:18;;;;;;;45.08;24.95;;;;;;;0.12;98.63;102870.34;5087963;28;20066;-77
2022/01/19 02:51:49;;;;;;;43.55;24.52;;;;;;;0.11;98.68;102873.81;5088227;28;20035;-78
2022/01/19 02:54:23;;;;;;;41.72;23.90;;;;;;;0.07;98.96;102879.84;5086780;28;20424;-79
2022/01/19 02:56:52;;;;;;;37.88;22.77;;;;;;;0.02;98.31;102884.13;5080338;28;20030;-78
2022/01/19 03:10:20;;;;;;;35.63;22.77;;;;;;;-0.20;97.63;102858.19;5088373;28;20141;-78
2022/01/19 03:12:46;;;;;;;35.65;22.60;;;;;;;-0.23;98.00;102847.84;5086784;28;20028;-78
2022/01/19 03:15:15;;;;;;;37.40;22.52;;;;;;;-0.28;98.21;102841.78;5096310;28;20024;-78
2022/01/19 03:17:40;;;;;;;35.65;21.73;;;;;;;-0.32;97.66;102838.34;5088675;28;20031;-78
2022/01/19 03:20:09;;;;;;;32.50;19.83;;;;;;;-0.37;97.58;102845.22;5088833;28;20034;-78
2022/01/19 03:22:40;;;;;;;28.05;20.27;;;;;;;-0.37;97.93;102839.19;5087754;28;20031;-79
2022/01/19 03:25:12;;;;;;;32.90;21.52;;;;;;;-0.41;97.99;102832.25;5089120;28;20115;-78
2022/01/19 03:27:39;;;;;;;33.42;21.60;;;;;;;-0.41;98.68;102832.25;5086458;28;20027;-78
2022/01/19 03:30:07;;;;;;;35.35;21.13;;;;;;;-0.47;98.43;102832.22;5088838;28;20028;-78
2022/01/19 03:32:32;;;;;;;37.85;21.80;;;;;;;-0.50;98.15;102814.13;5086927;28;20035;-78
2022/01/19 03:34:58;;;;;;;40.78;23.48;;;;;;;-0.55;98.06;102808.94;5095270;28;20568;-79
2022/01/19 03:37:24;;;;;;;46.17;23.83;;;;;;;-0.58;98.68;102805.47;5104376;28;20031;-78
2022/01/19 03:39:49;;;;;;;43.75;25.08;;;;;;;-0.52;99.15;102808.09;5081958;28;20465;-79
2022/01/19 03:42:15;;;;;;;55.25;28.27;;;;;;;-0.52;98.96;102806.34;5078553;28;20107;-78
2022/01/19 03:44:40;;;;;;;50.95;28.75;;;;;;;-0.53;99.18;102799.47;5089268;28;20028;-79
2022/01/19 03:47:07;;;;;;;54.15;29.27;;;;;;;-0.46;100.00;102802.94;5087386;28;20468;-78
2022/01/19 03:49:33;;;;;;;57.25;31.42;;;;;;;-0.43;100.00;102792.59;5088005;28;20059;-79
2022/01/19 03:52:05;;;;;;;63.83;31.75;;;;;;;-0.39;100.00;102784.00;5087303;28;20024;-78
2022/01/19 03:54:42;;;;;;;69.13;32.50;;;;;;;-0.38;100.00;102771.09;5088381;28;20472;-78
2022/01/19 03:57:08;;;;;;;67.88;33.28;;;;;;;-0.37;100.00;102764.19;5085596;28;20036;-78
2022/01/19 03:59:33;;;;;;;68.75;33.72;;;;;;;-0.33;100.00;102760.75;5087091;28;20476;-78
2022/01/19 04:01:59;;;;;;;69.60;34.25;;;;;;;-0.27;100.00;102752.13;5087213;28;20119;-79
2022/01/19 04:06:55;;;;;;;69.10;35.00;;;;;;;-0.24;100.00;102747.81;5087271;28;20069;-78
2022/01/19 04:09:21;;;;;;;77.15;34.80;;;;;;;-0.18;100.00;102759.91;5079425;28;20399;-78
2022/01/19 04:11:47;;;;;;;79.97;35.50;;;;;;;-0.16;100.00;102760.75;5086342;28;20020;-78
2022/01/19 04:14:21;;;;;;;78.80;36.42;;;;;;;-0.17;100.00;102754.72;5085071;28;20331;-78
2022/01/19 04:16:48;;;;;;;77.38;37.28;;;;;;;-0.14;100.00;102748.69;5087309;28;20032;-78
2022/01/19 04:19:28;;;;;;;76.20;36.47;;;;;;;-0.11;100.00;102748.69;5086248;28;20050;-78
2022/01/19 04:21:57;;;;;;;77.63;36.97;;;;;;;-0.11;100.00;102739.22;5087889;28;20370;-78
2022/01/19 04:24:24;;;;;;;77.82;35.92;;;;;;;-0.10;100.00;102743.53;5086296;28;20031;-78
2022/01/19 04:29:34;;;;;;;70.55;36.00;;;;;;;-0.09;100.00;102737.47;5087264;28;20039;-78
2022/01/19 04:32:08;;;;;;;72.75;35.55;;;;;;;-0.13;100.00;102746.09;5078969;28;20032;-78
2022/01/19 04:34:33;;;;;;;77.65;36.88;;;;;;;-0.13;100.00;102751.28;5079323;28;20036;-78
2022/01/19 04:37:24;;;;;;;74.07;35.22;;;;;;;-0.14;100.00;102754.72;5086753;28;20024;-78
2022/01/19 05:06:31;;;;;;;105.28;42.70;;;;;;;-0.09;100.00;102736.63;5081774;28;20046;-77
2022/01/19 05:09:05;;;;;;;98.20;42.50;;;;;;;-0.10;100.00;102725.41;5081397;28;20024;-77
2022/01/19 05:14:14;;;;;;;100.10;43.10;;;;;;;-0.10;100.00;102725.41;5080925;28;20111;-78
2022/01/19 05:16:39;;;;;;;97.10;43.20;;;;;;;-0.07;100.00;102728.00;5088119;28;20142;-78
2022/01/19 05:19:05;;;;;;;103.72;44.53;;;;;;;-0.07;100.00;102722.81;5088271;28;20039;-78
2022/01/19 05:21:30;;;;;;;94.97;41.50;;;;;;;-0.07;100.00;102729.72;5081669;28;20048;-78
2022/01/19 05:23:55;;;;;;;90.38;41.67;;;;;;;-0.06;100.00;102732.31;5090109;28;20032;-77
2022/01/19 05:26:21;;;;;;;96.35;41.95;;;;;;;-0.03;100.00;102737.47;5089788;28;20031;-78
2022/01/19 05:28:46;;;;;;;90.85;41.40;;;;;;;-0.01;100.00;102735.75;5089251;28;20446;-77
2022/01/19 05:31:12;;;;;;;92.10;40.50;;;;;;;-0.03;100.00;102731.44;5082460;28;20486;-80
2022/01/19 05:33:39;;;;;;;81.57;39.20;;;;;;;-0.01;100.00;102735.75;5106172;28;20161;-77
2022/01/19 05:36:04;;;;;;;83.82;39.08;;;;;;;-0.02;100.00;102728.00;5089282;28;20052;-77
2022/01/19 05:38:30;;;;;;;84.15;39.83;;;;;;;0.01;100.00;102737.50;5087619;28;20073;-77
2022/01/19 05:40:55;;;;;;;85.63;39.65;;;;;;;0.03;100.00;102730.59;5090202;28;20101;-78
2022/01/19 05:43:21;;;;;;;81.13;38.95;;;;;;;0.01;100.00;102725.44;5087637;28;20395;-80
2022/01/19 05:45:47;;;;;;;82.18;39.78;;;;;;;0.02;100.00;102728.88;5090429;28;20059;-77
2022/01/19 05:48:12;;;;;;;78.90;38.67;;;;;;;0.03;100.00;102718.53;5088751;28;20494;-77
2022/01/19 05:50:37;;;;;;;76.20;37.78;;;;;;;0.06;100.00;102720.25;5089126;28;20570;-79
2022/01/19 05:53:03;;;;;;;76.57;39.03;;;;;;;0.06;100.00;102717.66;5089350;28;20028;-79
2022/01/19 05:55:28;;;;;;;86.90;39.95;;;;;;;0.05;100.00;102718.53;5087944;28;20028;-79
2022/01/19 05:57:54;;;;;;;78.32;38.97;;;;;;;0.08;100.00;102713.34;5084666;28;20016;-78
2022/01/19 06:00:19;;;;;;;80.70;40.35;;;;;;;0.10;100.00;102714.22;5089444;28;20024;-78
2022/01/19 06:02:45;;;;;;;79.07;39.17;;;;;;;0.08;100.00;102709.03;5089283;28;20483;-78
2022/01/19 06:05:10;;;;;;;77.88;37.60;;;;;;;0.11;100.00;102710.75;5106788;28;20111;-78
2022/01/19 06:07:46;;;;;;;79.00;38.72;;;;;;;0.10;100.00;102704.72;5088627;28;20108;-78
2022/01/19 06:11:00;;;;;;;76.40;39.15;;;;;;;0.16;100.00;102707.31;5089927;28;20020;-79
2022/01/19 06:13:01;;;;;;;71.72;38.28;;;;;;;0.16;100.00;102702.13;5077850;28;20046;-78
2022/01/19 06:15:26;;;;;;;79.57;39.35;;;;;;;0.20;100.00;102708.16;5090019;28;20102;-79
2022/01/19 06:17:51;;;;;;;72.68;37.42;;;;;;;0.21;100.00;102700.38;5089749;28;20521;-79
2022/01/19 06:20:17;;;;;;;77.88;38.35;;;;;;;0.22;100.00;102693.50;5088830;28;20012;-79
2022/01/19 06:22:42;;;;;;;73.97;38.15;;;;;;;0.23;100.00;102697.81;5090024;28;20145;-78
2022/01/19 06:25:08;;;;;;;82.90;39.88;;;;;;;0.23;100.00;102688.31;5105543;28;20032;-78
2022/01/19 06:27:33;;;;;;;77.35;38.72;;;;;;;0.26;100.00;102693.47;5088605;28;20067;-79
2022/01/19 06:29:59;;;;;;;75.15;38.45;;;;;;;0.26;100.00;102683.13;5080866;28;20267;-79
2022/01/19 06:32:24;;;;;;;68.70;37.85;;;;;;;0.29;100.00;102677.06;5088038;28;20489;-79
2022/01/19 06:34:49;;;;;;;72.78;38.67;;;;;;;0.32;100.00;102675.34;5080134;28;20469;-79
2022/01/19 06:37:15;;;;;;;71.97;37.35;;;;;;;0.38;100.00;102679.63;5072723;28;20031;-79
2022/01/19 06:39:40;;;;;;;69.13;37.33;;;;;;;0.38;100.00;102669.28;5088816;28;20017;-78
2022/01/19 06:42:06;;;;;;;69.03;36.78;;;;;;;0.40;100.00;102666.69;5089129;28;20023;-78
2022/01/19 06:44:32;;;;;;;71.10;37.80;;;;;;;0.41;100.00;102660.69;5088162;28;20376;-79
2022/01/19 06:46:57;;;;;;;69.25;36.53;;;;;;;0.43;100.00;102657.22;5079908;28;20031;-79
2022/01/19 06:49:22;;;;;;;73.38;37.80;;;;;;;0.42;100.00;102652.91;5087149;28;20503;-79
2022/01/19 06:51:48;;;;;;;72.57;36.15;;;;;;;0.44;100.00;102646.00;5083353;28;20081;-79
2022/01/19 06:54:13;;;;;;;68.35;37.05;;;;;;;0.45;100.00;102637.34;5084419;28;20092;-79
2022/01/19 06:56:38;;;;;;;69.20;37.25;;;;;;;0.47;100.00;102637.34;5086384;28;20472;-78
2022/01/19 06:59:05;;;;;;;71.22;36.75;;;;;;;0.48;100.00;102637.34;5089657;28;20044;-79
2022/01/19 07:01:32;;;;;;;65.55;36.50;;;;;;;0.48;100.00;102634.75;5085500;28;20053;-79
2022/01/19 07:03:59;;;;;;;71.28;38.20;;;;;;;0.52;100.00;102635.59;5087100;28;20396;-78
2022/01/19 07:06:24;;;;;;;69.30;36.08;;;;;;;0.51;100.00;102626.97;5084099;28;20115;-78
2022/01/19 07:08:49;;;;;;;68.60;36.65;;;;;;;0.53;100.00;102633.00;5085916;28;20153;-78
2022/01/19 07:11:15;;;;;;;74.68;36.42;;;;;;;0.56;100.00;102629.53;5088642;28;20525;-79
2022/01/19 07:13:40;;;;;;;68.50;36.28;;;;;;;0.55;100.00;102633.00;5087792;28;20036;-78
2022/01/19 07:16:05;;;;;;;68.82;36.72;;;;;;;0.56;100.00;102622.63;5084564;28;20388;-78
2022/01/19 07:18:30;;;;;;;69.70;36.67;;;;;;;0.56;100.00;102625.22;5086735;28;20336;-78
2022/01/19 07:20:56;;;;;;;66.25;36.05;;;;;;;0.58;100.00;102626.06;5088115;28;20479;-78
2022/01/19 07:23:21;;;;;;;70.25;36.90;;;;;;;0.60;100.00;102621.75;5087561;28;20016;-78
2022/01/19 07:25:46;;;;;;;69.93;36.85;;;;;;;0.62;100.00;102619.16;5087653;28;20107;-78
2022/01/19 07:28:12;;;;;;;68.97;37.10;;;;;;;0.62;100.00;102622.59;5086458;28;20055;-78
2022/01/19 07:30:38;;;;;;;66.47;36.90;;;;;;;0.68;100.00;102623.44;5088853;28;20043;-78
2022/01/19 07:33:04;;;;;;;68.03;37.05;;;;;;;0.68;100.00;102623.44;5089405;28;20407;-78
2022/01/19 07:35:30;;;;;;;70.20;36.03;;;;;;;0.70;100.00;102616.53;5087506;28;20054;-78
2022/01/19 07:37:55;;;;;;;70.00;36.55;;;;;;;0.73;100.00;102627.72;5076147;28;20032;-78
2022/01/19 07:40:22;;;;;;;65.05;35.00;;;;;;;0.73;100.00;102614.78;5086699;28;20012;-79
2022/01/19 07:42:48;;;;;;;72.15;37.42;;;;;;;0.76;100.00;102619.94;5086357;28;20467;-78
2022/01/19 07:45:13;;;;;;;68.22;35.33;;;;;;;0.78;100.00;102610.44;5086034;28;20115;-79
2022/01/19 07:47:39;;;;;;;64.05;35.28;;;;;;;0.80;100.00;102597.47;5087841;28;20391;-79
2022/01/19 07:50:05;;;;;;;63.13;34.83;;;;;;;0.83;100.00;102602.66;5087513;28;20035;-78
2022/01/19 07:52:30;;;;;;;61.00;34.20;;;;;;;0.86;100.00;102602.66;5086397;28;20020;-81
2022/01/19 07:54:56;;;;;;;68.03;35.10;;;;;;;0.89;100.00;102602.63;5095775;28;20035;-81
2022/01/19 07:57:21;;;;;;;67.00;36.28;;;;;;;0.88;100.00;102596.59;5086957;28;20141;-79
2022/01/19 07:59:46;;;;;;;66.05;35.85;;;;;;;0.94;100.00;102608.63;5084821;28;20107;-77
2022/01/19 08:02:12;;;;;;;62.08;34.15;;;;;;;0.93;100.00;102601.72;5085615;28;20055;-77
2022/01/19 08:04:39;;;;;;;62.97;34.40;;;;;;;0.97;100.00;102600.84;5086868;28;20032;-77
2022/01/19 08:07:04;;;;;;;67.05;34.00;;;;;;;0.99;100.00;102599.09;5087417;28;20383;-77
2022/01/19 08:09:35;;;;;;;60.72;34.17;;;;;;;1.02;100.00;102593.03;5085209;28;20031;-77
2022/01/19 08:12:00;;;;;;;62.17;34.22;;;;;;;1.03;100.00;102595.63;5104382;28;20028;-77
2022/01/19 08:14:26;;;;;;;63.33;34.25;;;;;;;1.04;100.00;102591.28;5088234;28;20073;-80
2022/01/19 08:16:53;;;;;;;63.28;34.25;;;;;;;1.04;100.00;102588.72;5088099;28;20663;-80
2022/01/19 08:19:19;;;;;;;58.97;33.10;;;;;;;1.07;100.00;102591.28;5104299;28;20076;-79
2022/01/19 08:21:44;;;;;;;62.70;34.55;;;;;;;1.11;100.00;102588.66;5087120;28;20031;-79
2022/01/19 08:24:09;;;;;;;59.35;35.25;;;;;;;1.11;100.00;102578.28;5088367;28;20067;-79
2022/01/19 08:26:35;;;;;;;61.92;33.75;;;;;;;1.13;100.00;102575.69;5088869;28;20107;-79
2022/01/19 08:29:01;;;;;;;60.28;33.63;;;;;;;1.16;100.00;102584.28;5080338;28;20817;-79
2022/01/19 08:31:26;;;;;;;56.85;33.50;;;;;;;1.15;100.00;102579.97;5077884;28;20106;-79
2022/01/19 08:33:52;;;;;;;57.85;32.85;;;;;;;1.19;100.00;102580.81;5080766;28;20090;-79
2022/01/19 08:36:17;;;;;;;56.15;32.90;;;;;;;1.16;100.00;102566.13;5087013;28;20055;-79
2022/01/19 08:38:42;;;;;;;58.47;33.13;;;;;;;1.18;100.00;102567.00;5087024;28;20446;-79
2022/01/19 08:41:09;;;;;;;57.75;32.80;;;;;;;1.21;100.00;102563.53;5088212;28;20024;-79
2022/01/19 08:43:35;;;;;;;55.40;32.28;;;;;;;1.24;100.00;102564.38;5087852;28;20107;-79
2022/01/19 08:46:01;;;;;;;57.33;32.80;;;;;;;1.28;100.00;102564.34;5086286;28;20059;-79
2022/01/19 08:48:27;;;;;;;57.05;32.40;;;;;;;1.29;100.00;102555.69;5078349;28;20479;-79
2022/01/19 08:50:54;;;;;;;58.08;33.00;;;;;;;1.24;100.00;102538.44;5087065;28;20498;-80
2022/01/19 08:53:20;;;;;;;54.53;32.10;;;;;;;1.35;100.00;102550.47;5090712;28;20788;-79
2022/01/19 08:55:46;;;;;;;55.15;32.33;;;;;;;1.35;100.00;102545.28;5086840;28;20435;-79
2022/01/19 08:58:14;;;;;;;53.05;33.00;;;;;;;1.35;100.00;102540.09;5071755;28;20024;-79
2022/01/19 09:00:44;;;;;;;56.33;32.97;;;;;;;1.38;100.00;102545.25;5072569;28;20036;-79
2022/01/19 09:03:14;;;;;;;55.75;32.67;;;;;;;1.37;100.00;102544.38;5071419;28;20025;-79
2022/01/19 09:05:39;;;;;;;56.97;31.58;;;;;;;1.40;100.00;102533.13;5071705;28;20029;-79
2022/01/19 09:08:05;;;;;;;58.40;33.17;;;;;;;1.43;100.00;102538.28;5090962;28;20127;-79
2022/01/19 09:10:30;;;;;;;61.47;33.38;;;;;;;1.42;100.00;102523.59;5091255;28;20102;-79
2022/01/19 09:12:56;;;;;;;57.85;31.77;;;;;;;1.45;100.00;102523.56;5090016;28;20024;-79
2022/01/19 09:15:23;;;;;;;56.53;32.10;;;;;;;1.48;100.00;102531.31;5071280;28;20020;-79
2022/01/19 09:17:48;;;;;;;52.03;32.17;;;;;;;1.48;100.00;102526.13;5071828;28;20020;-82
2022/01/19 09:20:15;;;;;;;50.75;31.75;;;;;;;1.51;100.00;102529.56;5069194;28;20070;-79
2022/01/19 09:22:41;;;;;;;56.58;32.25;;;;;;;1.55;100.00;102518.28;5072336;28;20481;-79
2022/01/19 09:25:09;;;;;;;54.22;31.65;;;;;;;1.58;100.00;102522.56;5092064;28;20077;-79
2022/01/19 09:27:37;;;;;;;49.65;31.73;;;;;;;1.57;100.00;102526.91;5090172;28;20032;-79
2022/01/19 09:30:09;;;;;;;53.15;31.60;;;;;;;1.62;100.00;102526.03;5090242;28;20561;-79
2022/01/19 09:32:35;;;;;;;55.50;32.08;;;;;;;1.62;100.00;102516.50;5091043;28;20444;-79
2022/01/19 09:35:06;;;;;;;51.13;31.42;;;;;;;1.63;100.00;102514.78;5089546;28;20054;-79
2022/01/19 09:37:33;;;;;;;50.13;31.67;;;;;;;1.66;100.00;102513.00;5091078;28;20028;-79
2022/01/19 09:39:58;;;;;;;51.28;32.33;;;;;;;1.69;100.00;102514.69;5089527;28;20027;-79
2022/01/19 09:42:24;;;;;;;56.40;32.17;;;;;;;1.69;100.00;102502.59;5090196;28;20034;-79
2022/01/19 09:44:49;;;;;;;51.33;31.58;;;;;;;1.73;100.00;102500.81;5091650;28;20055;-79
2022/01/19 09:47:14;;;;;;;50.97;31.40;;;;;;;1.72;100.00;102499.09;5106242;28;20023;-79
2022/01/19 09:49:40;;;;;;;50.88;30.65;;;;;;;1.72;100.00;102474.00;5106918;28;20016;-79
2022/01/19 09:52:06;;;;;;;54.15;31.08;;;;;;;1.79;100.00;102480.84;5107326;28;20020;-79
2022/01/19 09:54:31;;;;;;;50.97;31.52;;;;;;;1.79;100.00;102478.25;5106974;28;20118;-79
2022/01/19 09:56:57;;;;;;;46.47;29.15;;;;;;;1.82;100.00;102480.81;5099800;28;20024;-79
2022/01/19 09:59:24;;;;;;;49.67;30.73;;;;;;;1.86;100.00;102472.13;5091664;28;20094;-79
2022/01/19 10:01:54;;;;;;;49.78;30.73;;;;;;;1.88;100.00;102464.31;5089921;28;20069;-79
2022/01/19 10:04:22;;;;;;;48.47;30.38;;;;;;;1.88;100.00;102454.78;5102238;28;20530;-79
2022/01/19 10:06:48;;;;;;;49.45;30.33;;;;;;;1.90;100.00;102454.75;5071927;28;20062;-81
2022/01/19 10:09:23;;;;;;;50.65;30.38;;;;;;;1.97;100.00;102458.13;5083366;28;20024;-82
2022/01/19 10:17:06;;;;;;;51.33;31.23;;;;;;;2.01;100.00;102450.31;5091420;28;20157;-79
2022/01/19 10:19:49;;;;;;;48.65;30.55;;;;;;;2.04;100.00;102449.41;5106355;28;20039;-80
2022/01/19 10:22:25;;;;;;;50.25;31.40;;;;;;;2.07;100.00;102454.56;5089523;28;20060;-79
2022/01/19 10:24:52;;;;;;;50.35;29.15;;;;;;;2.09;100.00;102450.22;5090861;28;20032;-79
2022/01/19 10:27:45;;;;;;;47.10;30.05;;;;;;;2.12;100.00;102453.63;5090081;28;20020;-79
2022/01/19 10:30:15;;;;;;;48.13;29.40;;;;;;;2.16;100.00;102454.44;5089165;28;20553;-79
2022/01/19 10:32:46;;;;;;;47.60;30.85;;;;;;;2.17;100.00;102446.63;5085725;28;20042;-79
2022/01/19 10:35:27;;;;;;;47.33;30.48;;;;;;;2.20;100.00;102441.41;5090181;28;20097;-79
2022/01/19 10:38:19;;;;;;;49.38;29.35;;;;;;;2.22;100.00;102428.41;5089856;28;20110;-79
2022/01/19 10:40:53;;;;;;;45.00;28.75;;;;;;;2.28;100.00;102417.06;5089196;28;20024;-79
2022/01/19 10:43:29;;;;;;;48.22;29.60;;;;;;;2.29;100.00;102422.22;5088507;28;20476;-79
2022/01/19 10:45:56;;;;;;;43.60;28.60;;;;;;;2.30;100.00;102410.09;5090407;28;20020;-79
2022/01/19 10:48:36;;;;;;;47.03;29.67;;;;;;;2.34;100.00;102404.84;5085237;28;20030;-79
2022/01/19 10:51:21;;;;;;;47.35;29.63;;;;;;;2.36;100.00;102403.06;5068308;28;20028;-79
2022/01/19 10:54:05;;;;;;;49.35;30.48;;;;;;;2.41;100.00;102418.63;5070009;28;20021;-79
2022/01/19 10:56:30;;;;;;;47.03;29.30;;;;;;;2.44;100.00;102429.81;5069094;28;20101;-79
2022/01/19 10:59:04;;;;;;;46.15;29.48;;;;;;;2.46;100.00;102427.19;5084879;28;20063;-79
2022/01/19 11:01:42;;;;;;;48.65;29.17;;;;;;;2.49;100.00;102412.41;5068656;28;20166;-79
2022/01/19 11:04:35;;;;;;;45.00;29.55;;;;;;;2.54;100.00;102401.09;5070779;28;20034;-79
2022/01/19 11:07:07;;;;;;;47.85;30.52;;;;;;;2.52;100.00;102388.13;5069912;28;20101;-79
2022/01/19 11:09:35;;;;;;;47.70;29.33;;;;;;;2.56;100.00;102396.72;5069817;28;20047;-79
2022/01/19 11:12:08;;;;;;;46.97;30.33;;;;;;;2.59;100.00;102391.47;5069762;28;20024;-79
2022/01/19 11:14:35;;;;;;;45.42;30.30;;;;;;;2.57;100.00;102378.53;5083581;28;20023;-79
2022/01/19 11:17:02;;;;;;;48.00;30.70;;;;;;;2.60;100.00;102385.41;5090477;28;20290;-79
2022/01/19 11:19:27;;;;;;;53.78;30.70;;;;;;;2.62;100.00;102360.25;5089452;28;20031;-82
2022/01/19 11:22:34;;;;;;;50.95;30.83;;;;;;;2.64;100.00;102361.09;5090472;28;20031;-79
2022/01/19 11:25:05;;;;;;;46.03;30.75;;;;;;;2.65;100.00;102355.88;5086024;28;20067;-80
2022/01/19 11:27:45;;;;;;;49.27;31.33;;;;;;;2.68;100.00;102354.94;5089221;28;20024;-79
2022/01/19 11:30:17;;;;;;;50.05;32.15;;;;;;;2.67;100.00;102353.25;5089844;28;20028;-81
2022/01/19 11:32:44;;;;;;;53.30;32.08;;;;;;;2.67;100.00;102358.44;5088771;28;20072;-80
2022/01/19 11:35:33;;;;;;;51.88;32.38;;;;;;;2.73;100.00;102350.53;5105171;28;20435;-81
2022/01/19 11:38:00;;;;;;;48.88;32.65;;;;;;;2.71;100.00;102334.97;5089268;28;20051;-80
2022/01/19 11:40:35;;;;;;;53.85;32.90;;;;;;;2.73;100.00;102332.34;5100128;28;20024;-81
2022/01/19 11:43:19;;;;;;;54.08;33.58;;;;;;;2.74;100.00;102329.72;5089424;28;20441;-81
2022/01/19 11:45:45;;;;;;;50.45;32.55;;;;;;;2.74;100.00;102327.13;5087410;28;20431;-82
2022/01/19 11:48:24;;;;;;;53.00;33.13;;;;;;;2.75;100.00;102317.56;5087419;28;20023;-80
2022/01/19 11:50:51;;;;;;;54.20;33.55;;;;;;;2.77;100.00;102313.22;5089191;28;20024;-80
2022/01/19 11:53:19;;;;;;;50.00;32.85;;;;;;;2.76;100.00;102306.28;5088883;28;20048;-81
2022/01/19 11:56:08;;;;;;;48.30;31.83;;;;;;;2.79;100.00;102295.84;5086688;28;20024;-80
2022/01/19 11:58:34;;;;;;;53.35;34.42;;;;;;;2.81;100.00;102296.69;5083192;28;20023;-80
2022/01/19 12:01:00;;;;;;;52.20;33.50;;;;;;;2.82;100.00;102296.66;5088795;28;20031;-80
2022/01/19 12:03:29;;;;;;;49.00;34.78;;;;;;;2.82;100.00;102290.63;5087133;28;20020;-80
2022/01/19 12:05:56;;;;;;;52.65;34.65;;;;;;;2.80;100.00;102288.06;5088166;28;20020;-81
2022/01/19 12:08:34;;;;;;;51.35;34.75;;;;;;;2.86;100.00;102279.28;5067560;28;20054;-81
2022/01/19 12:11:14;;;;;;;55.03;35.97;;;;;;;2.84;100.00;102273.25;5069744;28;20037;-79
2022/01/19 12:16:21;;;;;;;58.53;37.47;;;;;;;2.87;100.00;102281.00;5086801;28;20036;-79
2022/01/19 12:18:48;;;;;;;56.10;37.40;;;;;;;2.86;100.00;102265.41;5089901;28;20086;-79
2022/01/19 12:21:34;;;;;;;59.78;38.35;;;;;;;2.92;100.00;102265.31;5089502;28;20056;-79
2022/01/19 12:24:21;;;;;;;62.28;38.88;;;;;;;2.93;100.00;102252.28;5088675;28;20498;-79
2022/01/19 12:26:50;;;;;;;61.53;39.00;;;;;;;2.92;100.00;102240.16;5089576;28;20028;-79
2022/01/19 12:29:33;;;;;;;63.72;39.67;;;;;;;2.96;100.00;102234.00;5091412;28;20028;-79
2022/01/19 12:32:04;;;;;;;59.53;39.22;;;;;;;2.95;100.00;102237.50;5092847;28;20437;-80
2022/01/19 12:34:57;;;;;;;61.45;39.53;;;;;;;3.00;100.00;102242.59;5089598;28;20460;-79
2022/01/19 12:37:32;;;;;;;57.65;39.33;;;;;;;3.00;100.00;102240.84;5086725;28;20539;-80
2022/01/19 12:39:59;;;;;;;65.63;39.60;;;;;;;3.01;100.00;102239.13;5091521;28;20027;-79
2022/01/19 12:42:30;;;;;;;61.38;40.47;;;;;;;3.01;100.00;102237.38;5092125;28;20027;-79
2022/01/19 12:44:59;;;;;;;61.42;38.67;;;;;;;3.03;100.00;102227.78;5090812;28;20039;-79